sensor_id;sensor_type;location;lat;lon;timestamp;P1;durP1;ratioP1;P2;durP2;ratioP2
72109;SDS011;59983;52.010;5.420;2023-07-29T00:00:01;4.20;;;3.72;;
72109;SDS011;59983;52.010;5.420;2023-07-29T00:02:29;3.80;;;3.60;;
72109;SDS011;59983;52.010;5.420;2023-07-29T00:04:57;4.25;;;3.95;;
72109;SDS011;59983;52.010;5.420;2023-07-29T00:07:23;4.00;;;3.70;;
72109;SDS011;59983;52.010;5.420;2023-07-29T00:09:50;4.72;;;4.32;;
72109;SDS011;59983;52.010;5.420;2023-07-29T00:12:16;4.68;;;4.38;;
72109;SDS011;59983;52.010;5.420;2023-07-29T00:14:43;4.00;;;3.80;;
72109;SDS011;59983;52.010;5.420;2023-07-29T00:17:09;5.10;;;4.70;;
72109;SDS011;59983;52.010;5.420;2023-07-29T00:19:36;4.28;;;4.03;;
72109;SDS011;59983;52.010;5.420;2023-07-29T00:22:02;6.25;;;4.28;;
72109;SDS011;59983;52.010;5.420;2023-07-29T00:24:30;4.20;;;3.97;;
72109;SDS011;59983;52.010;5.420;2023-07-29T00:26:56;4.30;;;4.00;;
72109;SDS011;59983;52.010;5.420;2023-07-29T00:29:23;5.28;;;4.13;;
72109;SDS011;59983;52.010;5.420;2023-07-29T00:31:49;4.03;;;3.75;;
72109;SDS011;59983;52.010;5.420;2023-07-29T00:34:16;6.63;;;4.90;;
72109;SDS011;59983;52.010;5.420;2023-07-29T00:36:45;4.10;;;3.80;;
72109;SDS011;59983;52.010;5.420;2023-07-29T00:39:12;4.83;;;4.43;;
72109;SDS011;59983;52.010;5.420;2023-07-29T00:41:39;4.78;;;4.47;;
72109;SDS011;59983;52.010;5.420;2023-07-29T00:44:06;4.43;;;4.07;;
72109;SDS011;59983;52.010;5.420;2023-07-29T00:46:33;5.97;;;3.60;;
72109;SDS011;59983;52.010;5.420;2023-07-29T00:49:02;3.92;;;3.58;;
72109;SDS011;59983;52.010;5.420;2023-07-29T00:51:30;4.40;;;3.80;;
72109;SDS011;59983;52.010;5.420;2023-07-29T00:53:57;4.38;;;4.10;;
72109;SDS011;59983;52.010;5.420;2023-07-29T00:56:23;4.30;;;3.88;;
72109;SDS011;59983;52.010;5.420;2023-07-29T00:58:50;4.07;;;3.67;;
72109;SDS011;59983;52.010;5.420;2023-07-29T01:01:17;4.25;;;3.95;;
72109;SDS011;59983;52.010;5.420;2023-07-29T01:03:44;4.87;;;4.57;;
72109;SDS011;59983;52.010;5.420;2023-07-29T01:06:13;4.72;;;4.38;;
72109;SDS011;59983;52.010;5.420;2023-07-29T01:12:22;5.00;;;4.18;;
72109;SDS011;59983;52.010;5.420;2023-07-29T01:14:59;4.05;;;3.75;;
72109;SDS011;59983;52.010;5.420;2023-07-29T01:17:33;4.73;;;4.33;;
72109;SDS011;59983;52.010;5.420;2023-07-29T01:20:07;4.50;;;4.20;;
72109;SDS011;59983;52.010;5.420;2023-07-29T01:22:36;4.18;;;3.88;;
72109;SDS011;59983;52.010;5.420;2023-07-29T01:25:03;4.57;;;3.92;;
72109;SDS011;59983;52.010;5.420;2023-07-29T01:27:30;5.20;;;4.80;;
72109;SDS011;59983;52.010;5.420;2023-07-29T01:29:57;3.83;;;3.60;;
72109;SDS011;59983;52.010;5.420;2023-07-29T01:37:55;6.47;;;4.95;;
72109;SDS011;59983;52.010;5.420;2023-07-29T01:40:24;4.53;;;4.22;;
72109;SDS011;59983;52.010;5.420;2023-07-29T01:42:53;5.63;;;5.13;;
72109;SDS011;59983;52.010;5.420;2023-07-29T01:45:23;5.68;;;5.28;;
72109;SDS011;59983;52.010;5.420;2023-07-29T01:47:52;5.88;;;5.50;;
72109;SDS011;59983;52.010;5.420;2023-07-29T01:50:18;8.00;;;6.05;;
72109;SDS011;59983;52.010;5.420;2023-07-29T01:52:45;7.30;;;6.60;;
72109;SDS011;59983;52.010;5.420;2023-07-29T01:55:11;7.73;;;6.33;;
72109;SDS011;59983;52.010;5.420;2023-07-29T01:57:38;7.43;;;6.85;;
72109;SDS011;59983;52.010;5.420;2023-07-29T02:00:05;10.57;;;8.05;;
72109;SDS011;59983;52.010;5.420;2023-07-29T02:02:32;6.78;;;6.18;;
72109;SDS011;59983;52.010;5.420;2023-07-29T02:04:59;9.02;;;6.80;;
72109;SDS011;59983;52.010;5.420;2023-07-29T02:07:25;6.93;;;6.23;;
72109;SDS011;59983;52.010;5.420;2023-07-29T02:09:52;11.43;;;6.32;;
72109;SDS011;59983;52.010;5.420;2023-07-29T02:12:19;6.85;;;6.15;;
72109;SDS011;59983;52.010;5.420;2023-07-29T02:14:46;6.85;;;6.28;;
72109;SDS011;59983;52.010;5.420;2023-07-29T02:17:12;8.45;;;7.20;;
72109;SDS011;59983;52.010;5.420;2023-07-29T02:19:39;13.60;;;7.27;;
72109;SDS011;59983;52.010;5.420;2023-07-29T02:22:05;7.90;;;7.20;;
72109;SDS011;59983;52.010;5.420;2023-07-29T02:24:32;7.22;;;6.22;;
72109;SDS011;59983;52.010;5.420;2023-07-29T02:26:59;7.88;;;7.13;;
72109;SDS011;59983;52.010;5.420;2023-07-29T02:29:25;7.00;;;6.35;;
72109;SDS011;59983;52.010;5.420;2023-07-29T02:31:52;7.97;;;7.13;;
72109;SDS011;59983;52.010;5.420;2023-07-29T02:34:18;10.00;;;6.90;;
72109;SDS011;59983;52.010;5.420;2023-07-29T02:36:45;6.95;;;6.28;;
72109;SDS011;59983;52.010;5.420;2023-07-29T02:39:11;8.68;;;7.57;;
72109;SDS011;59983;52.010;5.420;2023-07-29T02:41:38;10.93;;;7.28;;
72109;SDS011;59983;52.010;5.420;2023-07-29T02:44:05;9.73;;;6.60;;
72109;SDS011;59983;52.010;5.420;2023-07-29T02:46:31;7.63;;;5.90;;
72109;SDS011;59983;52.010;5.420;2023-07-29T02:48:58;8.20;;;6.68;;
72109;SDS011;59983;52.010;5.420;2023-07-29T02:51:25;7.95;;;5.80;;
72109;SDS011;59983;52.010;5.420;2023-07-29T02:53:51;6.20;;;5.72;;
72109;SDS011;59983;52.010;5.420;2023-07-29T02:56:18;5.90;;;5.47;;
72109;SDS011;59983;52.010;5.420;2023-07-29T02:58:45;6.22;;;5.72;;
72109;SDS011;59983;52.010;5.420;2023-07-29T03:01:11;6.72;;;6.05;;
72109;SDS011;59983;52.010;5.420;2023-07-29T03:03:39;9.70;;;5.68;;
72109;SDS011;59983;52.010;5.420;2023-07-29T03:06:06;5.30;;;4.75;;
72109;SDS011;59983;52.010;5.420;2023-07-29T03:08:34;5.87;;;5.23;;
72109;SDS011;59983;52.010;5.420;2023-07-29T03:11:05;6.15;;;5.55;;
72109;SDS011;59983;52.010;5.420;2023-07-29T03:13:33;5.50;;;4.72;;
72109;SDS011;59983;52.010;5.420;2023-07-29T03:16:10;7.55;;;5.90;;
72109;SDS011;59983;52.010;5.420;2023-07-29T03:18:38;6.18;;;5.50;;
72109;SDS011;59983;52.010;5.420;2023-07-29T03:21:04;9.63;;;5.13;;
72109;SDS011;59983;52.010;5.420;2023-07-29T03:23:32;5.32;;;4.93;;
72109;SDS011;59983;52.010;5.420;2023-07-29T03:25:59;5.18;;;4.75;;
72109;SDS011;59983;52.010;5.420;2023-07-29T03:28:28;5.90;;;5.40;;
72109;SDS011;59983;52.010;5.420;2023-07-29T03:30:56;5.47;;;4.90;;
72109;SDS011;59983;52.010;5.420;2023-07-29T03:33:23;5.87;;;5.47;;
72109;SDS011;59983;52.010;5.420;2023-07-29T03:35:51;5.32;;;4.90;;
72109;SDS011;59983;52.010;5.420;2023-07-29T03:38:20;5.93;;;5.43;;
72109;SDS011;59983;52.010;5.420;2023-07-29T03:40:47;6.10;;;5.60;;
72109;SDS011;59983;52.010;5.420;2023-07-29T03:43:13;8.70;;;5.95;;
72109;SDS011;59983;52.010;5.420;2023-07-29T03:45:40;5.80;;;5.30;;
72109;SDS011;59983;52.010;5.420;2023-07-29T03:48:07;5.57;;;5.05;;
72109;SDS011;59983;52.010;5.420;2023-07-29T03:50:34;7.72;;;5.53;;
72109;SDS011;59983;52.010;5.420;2023-07-29T03:53:02;5.15;;;4.65;;
72109;SDS011;59983;52.010;5.420;2023-07-29T03:55:30;4.82;;;4.53;;
72109;SDS011;59983;52.010;5.420;2023-07-29T03:57:58;5.57;;;5.07;;
72109;SDS011;59983;52.010;5.420;2023-07-29T04:00:25;7.70;;;4.72;;
72109;SDS011;59983;52.010;5.420;2023-07-29T04:02:52;4.88;;;4.40;;
72109;SDS011;59983;52.010;5.420;2023-07-29T04:05:18;5.38;;;4.88;;
72109;SDS011;59983;52.010;5.420;2023-07-29T04:07:45;4.47;;;4.18;;
72109;SDS011;59983;52.010;5.420;2023-07-29T04:10:12;4.60;;;4.30;;
72109;SDS011;59983;52.010;5.420;2023-07-29T04:12:39;4.68;;;4.38;;
72109;SDS011;59983;52.010;5.420;2023-07-29T04:15:06;5.28;;;4.75;;
72109;SDS011;59983;52.010;5.420;2023-07-29T04:17:33;5.32;;;4.82;;
72109;SDS011;59983;52.010;5.420;2023-07-29T04:19:59;5.38;;;4.00;;
72109;SDS011;59983;52.010;5.420;2023-07-29T04:22:26;5.60;;;5.10;;
72109;SDS011;59983;52.010;5.420;2023-07-29T04:24:52;5.05;;;4.60;;
72109;SDS011;59983;52.010;5.420;2023-07-29T04:27:20;7.50;;;4.53;;
72109;SDS011;59983;52.010;5.420;2023-07-29T04:29:46;5.20;;;4.80;;
72109;SDS011;59983;52.010;5.420;2023-07-29T04:32:13;4.85;;;4.45;;
72109;SDS011;59983;52.010;5.420;2023-07-29T04:34:39;5.57;;;4.53;;
72109;SDS011;59983;52.010;5.420;2023-07-29T04:37:06;5.07;;;4.20;;
72109;SDS011;59983;52.010;5.420;2023-07-29T04:39:32;7.25;;;4.50;;
72109;SDS011;59983;52.010;5.420;2023-07-29T04:41:59;4.97;;;4.57;;
72109;SDS011;59983;52.010;5.420;2023-07-29T04:44:27;4.43;;;4.00;;
72109;SDS011;59983;52.010;5.420;2023-07-29T04:46:53;5.27;;;4.77;;
72109;SDS011;59983;52.010;5.420;2023-07-29T04:49:20;4.45;;;4.05;;
72109;SDS011;59983;52.010;5.420;2023-07-29T04:51:46;5.50;;;5.00;;
72109;SDS011;59983;52.010;5.420;2023-07-29T04:54:13;5.00;;;4.50;;
72109;SDS011;59983;52.010;5.420;2023-07-29T04:56:39;4.93;;;4.43;;
72109;SDS011;59983;52.010;5.420;2023-07-29T04:59:06;4.40;;;4.00;;
72109;SDS011;59983;52.010;5.420;2023-07-29T05:01:34;5.07;;;4.57;;
72109;SDS011;59983;52.010;5.420;2023-07-29T05:04:01;4.78;;;4.47;;
72109;SDS011;59983;52.010;5.420;2023-07-29T05:06:28;5.22;;;4.80;;
72109;SDS011;59983;52.010;5.420;2023-07-29T05:08:57;4.72;;;4.32;;
72109;SDS011;59983;52.010;5.420;2023-07-29T05:11:24;4.77;;;4.37;;
72109;SDS011;59983;52.010;5.420;2023-07-29T05:13:51;4.75;;;4.40;;
72109;SDS011;59983;52.010;5.420;2023-07-29T05:16:18;5.00;;;4.60;;
72109;SDS011;59983;52.010;5.420;2023-07-29T05:18:44;4.97;;;4.22;;
72109;SDS011;59983;52.010;5.420;2023-07-29T05:21:11;5.38;;;4.88;;
72109;SDS011;59983;52.010;5.420;2023-07-29T05:23:40;5.77;;;4.73;;
72109;SDS011;59983;52.010;5.420;2023-07-29T05:26:07;5.18;;;4.78;;
72109;SDS011;59983;52.010;5.420;2023-07-29T05:28:33;5.10;;;4.72;;
72109;SDS011;59983;52.010;5.420;2023-07-29T05:31:00;5.88;;;5.38;;
72109;SDS011;59983;52.010;5.420;2023-07-29T05:33:28;5.13;;;4.82;;
72109;SDS011;59983;52.010;5.420;2023-07-29T05:35:54;5.63;;;4.30;;
72109;SDS011;59983;52.010;5.420;2023-07-29T05:38:21;4.25;;;3.95;;
72109;SDS011;59983;52.010;5.420;2023-07-29T05:40:48;5.35;;;4.75;;
72109;SDS011;59983;52.010;5.420;2023-07-29T05:43:15;5.20;;;4.70;;
72109;SDS011;59983;52.010;5.420;2023-07-29T05:45:41;8.43;;;5.30;;
72109;SDS011;59983;52.010;5.420;2023-07-29T05:48:08;6.33;;;4.70;;
72109;SDS011;59983;52.010;5.420;2023-07-29T05:50:34;9.88;;;5.50;;
72109;SDS011;59983;52.010;5.420;2023-07-29T05:53:01;6.63;;;6.10;;
72109;SDS011;59983;52.010;5.420;2023-07-29T05:55:27;7.55;;;5.55;;
72109;SDS011;59983;52.010;5.420;2023-07-29T05:57:54;6.93;;;5.63;;
72109;SDS011;59983;52.010;5.420;2023-07-29T06:00:21;8.03;;;5.80;;
72109;SDS011;59983;52.010;5.420;2023-07-29T06:02:47;7.00;;;5.28;;
72109;SDS011;59983;52.010;5.420;2023-07-29T06:05:14;6.88;;;6.15;;
72109;SDS011;59983;52.010;5.420;2023-07-29T06:07:41;7.50;;;5.50;;
72109;SDS011;59983;52.010;5.420;2023-07-29T06:10:16;5.93;;;5.43;;
72109;SDS011;59983;52.010;5.420;2023-07-29T06:12:46;5.27;;;4.87;;
72109;SDS011;59983;52.010;5.420;2023-07-29T06:15:13;6.45;;;5.22;;
72109;SDS011;59983;52.010;5.420;2023-07-29T06:17:40;6.45;;;5.85;;
72109;SDS011;59983;52.010;5.420;2023-07-29T06:20:07;6.50;;;5.65;;
72109;SDS011;59983;52.010;5.420;2023-07-29T06:22:34;5.38;;;4.88;;
72109;SDS011;59983;52.010;5.420;2023-07-29T06:25:00;10.27;;;6.70;;
72109;SDS011;59983;52.010;5.420;2023-07-29T06:27:27;5.90;;;5.30;;
72109;SDS011;59983;52.010;5.420;2023-07-29T06:29:54;6.47;;;5.65;;
72109;SDS011;59983;52.010;5.420;2023-07-29T06:32:20;6.60;;;6.00;;
72109;SDS011;59983;52.010;5.420;2023-07-29T06:34:47;7.97;;;5.65;;
72109;SDS011;59983;52.010;5.420;2023-07-29T06:37:13;7.57;;;5.70;;
72109;SDS011;59983;52.010;5.420;2023-07-29T06:39:40;6.55;;;5.95;;
72109;SDS011;59983;52.010;5.420;2023-07-29T06:42:07;8.98;;;4.85;;
72109;SDS011;59983;52.010;5.420;2023-07-29T06:44:33;7.05;;;6.35;;
72109;SDS011;59983;52.010;5.420;2023-07-29T06:47:00;9.38;;;6.47;;
72109;SDS011;59983;52.010;5.420;2023-07-29T06:49:26;6.33;;;5.73;;
72109;SDS011;59983;52.010;5.420;2023-07-29T06:51:53;7.28;;;6.38;;
72109;SDS011;59983;52.010;5.420;2023-07-29T06:54:22;8.10;;;6.25;;
72109;SDS011;59983;52.010;5.420;2023-07-29T06:56:51;7.82;;;6.57;;
72109;SDS011;59983;52.010;5.420;2023-07-29T06:59:17;7.40;;;6.40;;
72109;SDS011;59983;52.010;5.420;2023-07-29T07:01:44;7.07;;;6.30;;
72109;SDS011;59983;52.010;5.420;2023-07-29T07:04:11;7.25;;;6.55;;
72109;SDS011;59983;52.010;5.420;2023-07-29T07:06:37;8.82;;;6.10;;
72109;SDS011;59983;52.010;5.420;2023-07-29T07:09:04;7.85;;;7.15;;
72109;SDS011;59983;52.010;5.420;2023-07-29T07:11:31;6.90;;;6.30;;
72109;SDS011;59983;52.010;5.420;2023-07-29T07:13:57;7.03;;;6.53;;
72109;SDS011;59983;52.010;5.420;2023-07-29T07:16:23;6.90;;;6.35;;
72109;SDS011;59983;52.010;5.420;2023-07-29T07:18:50;7.07;;;6.38;;
72109;SDS011;59983;52.010;5.420;2023-07-29T07:21:17;7.35;;;6.50;;
72109;SDS011;59983;52.010;5.420;2023-07-29T07:23:44;7.55;;;6.57;;
72109;SDS011;59983;52.010;5.420;2023-07-29T07:26:10;7.30;;;6.70;;
72109;SDS011;59983;52.010;5.420;2023-07-29T07:28:37;7.90;;;7.25;;
72109;SDS011;59983;52.010;5.420;2023-07-29T07:31:03;7.88;;;7.20;;
72109;SDS011;59983;52.010;5.420;2023-07-29T07:33:30;7.97;;;7.22;;
72109;SDS011;59983;52.010;5.420;2023-07-29T07:35:56;7.18;;;6.57;;
72109;SDS011;59983;52.010;5.420;2023-07-29T07:38:23;7.57;;;6.80;;
72109;SDS011;59983;52.010;5.420;2023-07-29T07:40:54;6.50;;;6.07;;
72109;SDS011;59983;52.010;5.420;2023-07-29T07:43:22;7.93;;;7.20;;
72109;SDS011;59983;52.010;5.420;2023-07-29T07:45:49;7.47;;;6.53;;
72109;SDS011;59983;52.010;5.420;2023-07-29T07:48:17;6.60;;;6.10;;
72109;SDS011;59983;52.010;5.420;2023-07-29T07:50:46;5.83;;;4.90;;
72109;SDS011;59983;52.010;5.420;2023-07-29T07:53:12;6.63;;;6.07;;
72109;SDS011;59983;52.010;5.420;2023-07-29T07:55:39;7.07;;;6.47;;
72109;SDS011;59983;52.010;5.420;2023-07-29T07:58:06;7.35;;;6.10;;
72109;SDS011;59983;52.010;5.420;2023-07-29T08:00:32;7.40;;;6.78;;
72109;SDS011;59983;52.010;5.420;2023-07-29T08:02:59;6.43;;;5.80;;
72109;SDS011;59983;52.010;5.420;2023-07-29T08:05:25;5.72;;;5.32;;
72109;SDS011;59983;52.010;5.420;2023-07-29T08:07:52;5.43;;;4.93;;
72109;SDS011;59983;52.010;5.420;2023-07-29T08:10:18;4.75;;;4.30;;
72109;SDS011;59983;52.010;5.420;2023-07-29T08:12:45;6.88;;;4.50;;
72109;SDS011;59983;52.010;5.420;2023-07-29T08:15:11;5.40;;;4.43;;
72109;SDS011;59983;52.010;5.420;2023-07-29T08:17:38;5.10;;;3.58;;
72109;SDS011;59983;52.010;5.420;2023-07-29T08:20:05;5.15;;;4.45;;
72109;SDS011;59983;52.010;5.420;2023-07-29T08:22:32;3.83;;;3.58;;
72109;SDS011;59983;52.010;5.420;2023-07-29T08:24:59;3.60;;;3.30;;
72109;SDS011;59983;52.010;5.420;2023-07-29T08:27:26;3.53;;;3.17;;
72109;SDS011;59983;52.010;5.420;2023-07-29T08:29:53;3.92;;;2.90;;
72109;SDS011;59983;52.010;5.420;2023-07-29T08:32:20;5.25;;;3.97;;
72109;SDS011;59983;52.010;5.420;2023-07-29T08:34:47;4.85;;;3.30;;
72109;SDS011;59983;52.010;5.420;2023-07-29T08:37:13;5.03;;;3.33;;
72109;SDS011;59983;52.010;5.420;2023-07-29T08:39:40;4.60;;;4.20;;
72109;SDS011;59983;52.010;5.420;2023-07-29T08:42:11;3.85;;;3.30;;
72109;SDS011;59983;52.010;5.420;2023-07-29T08:44:42;4.03;;;3.70;;
72109;SDS011;59983;52.010;5.420;2023-07-29T08:47:11;3.85;;;3.55;;
72109;SDS011;59983;52.010;5.420;2023-07-29T08:49:40;7.07;;;4.30;;
72109;SDS011;59983;52.010;5.420;2023-07-29T08:52:07;4.23;;;3.87;;
72109;SDS011;59983;52.010;5.420;2023-07-29T08:54:36;4.40;;;4.00;;
72109;SDS011;59983;52.010;5.420;2023-07-29T08:57:03;4.30;;;4.03;;
72109;SDS011;59983;52.010;5.420;2023-07-29T08:59:30;5.28;;;4.78;;
72109;SDS011;59983;52.010;5.420;2023-07-29T09:01:57;5.00;;;4.50;;
72109;SDS011;59983;52.010;5.420;2023-07-29T09:04:24;4.90;;;4.40;;
72109;SDS011;59983;52.010;5.420;2023-07-29T09:06:51;4.70;;;4.30;;
72109;SDS011;59983;52.010;5.420;2023-07-29T09:09:20;6.05;;;4.75;;
72109;SDS011;59983;52.010;5.420;2023-07-29T09:11:47;5.38;;;4.55;;
72109;SDS011;59983;52.010;5.420;2023-07-29T09:14:14;4.88;;;3.75;;
72109;SDS011;59983;52.010;5.420;2023-07-29T09:16:41;4.00;;;3.60;;
72109;SDS011;59983;52.010;5.420;2023-07-29T09:19:08;4.40;;;4.00;;
72109;SDS011;59983;52.010;5.420;2023-07-29T09:21:37;5.35;;;3.75;;
72109;SDS011;59983;52.010;5.420;2023-07-29T09:24:05;3.58;;;3.38;;
72109;SDS011;59983;52.010;5.420;2023-07-29T09:26:33;4.35;;;3.95;;
72109;SDS011;59983;52.010;5.420;2023-07-29T09:29:01;5.60;;;3.80;;
72109;SDS011;59983;52.010;5.420;2023-07-29T09:31:28;3.30;;;3.10;;
72109;SDS011;59983;52.010;5.420;2023-07-29T09:33:56;4.03;;;3.42;;
72109;SDS011;59983;52.010;5.420;2023-07-29T09:36:25;4.00;;;3.47;;
72109;SDS011;59983;52.010;5.420;2023-07-29T09:38:55;4.50;;;4.05;;
72109;SDS011;59983;52.010;5.420;2023-07-29T09:41:26;4.20;;;3.20;;
72109;SDS011;59983;52.010;5.420;2023-07-29T09:43:58;4.72;;;3.33;;
72109;SDS011;59983;52.010;5.420;2023-07-29T09:46:33;3.25;;;2.95;;
72109;SDS011;59983;52.010;5.420;2023-07-29T09:49:02;2.42;;;2.25;;
72109;SDS011;59983;52.010;5.420;2023-07-29T09:51:37;2.55;;;2.30;;
72109;SDS011;59983;52.010;5.420;2023-07-29T09:54:05;4.57;;;2.83;;
72109;SDS011;59983;52.010;5.420;2023-07-29T09:56:33;3.67;;;3.00;;
72109;SDS011;59983;52.010;5.420;2023-07-29T09:59:00;2.70;;;2.50;;
72109;SDS011;59983;52.010;5.420;2023-07-29T10:01:30;2.55;;;2.35;;
72109;SDS011;59983;52.010;5.420;2023-07-29T10:03:58;3.92;;;3.53;;
72109;SDS011;59983;52.010;5.420;2023-07-29T10:06:28;3.03;;;2.80;;
72109;SDS011;59983;52.010;5.420;2023-07-29T10:08:55;3.00;;;2.80;;
72109;SDS011;59983;52.010;5.420;2023-07-29T10:11:23;3.33;;;2.97;;
72109;SDS011;59983;52.010;5.420;2023-07-29T10:13:51;2.83;;;2.60;;
72109;SDS011;59983;52.010;5.420;2023-07-29T10:16:34;2.47;;;2.28;;
72109;SDS011;59983;52.010;5.420;2023-07-29T10:19:03;5.07;;;3.17;;
72109;SDS011;59983;52.010;5.420;2023-07-29T10:21:31;2.88;;;2.03;;
72109;SDS011;59983;52.010;5.420;2023-07-29T10:23:59;2.55;;;2.35;;
72109;SDS011;59983;52.010;5.420;2023-07-29T10:26:29;2.72;;;2.53;;
72109;SDS011;59983;52.010;5.420;2023-07-29T10:28:58;2.90;;;2.42;;
72109;SDS011;59983;52.010;5.420;2023-07-29T10:31:31;4.40;;;3.07;;
72109;SDS011;59983;52.010;5.420;2023-07-29T10:33:59;2.97;;;2.78;;
72109;SDS011;59983;52.010;5.420;2023-07-29T10:36:26;2.70;;;2.50;;
72109;SDS011;59983;52.010;5.420;2023-07-29T10:38:54;2.97;;;2.78;;
72109;SDS011;59983;52.010;5.420;2023-07-29T10:41:20;2.72;;;2.53;;
72109;SDS011;59983;52.010;5.420;2023-07-29T10:43:47;2.60;;;2.40;;
72109;SDS011;59983;52.010;5.420;2023-07-29T10:46:17;3.78;;;2.20;;
72109;SDS011;59983;52.010;5.420;2023-07-29T10:51:36;2.13;;;2.03;;
72109;SDS011;59983;52.010;5.420;2023-07-29T10:54:09;2.47;;;1.90;;
72109;SDS011;59983;52.010;5.420;2023-07-29T10:56:41;1.90;;;1.80;;
72109;SDS011;59983;52.010;5.420;2023-07-29T11:01:39;2.03;;;1.92;;
72109;SDS011;59983;52.010;5.420;2023-07-29T11:17:35;3.20;;;2.83;;
72109;SDS011;59983;52.010;5.420;2023-07-29T11:20:05;3.30;;;3.10;;
72109;SDS011;59983;52.010;5.420;2023-07-29T11:22:33;4.03;;;3.63;;
72109;SDS011;59983;52.010;5.420;2023-07-29T11:25:00;4.43;;;4.13;;
72109;SDS011;59983;52.010;5.420;2023-07-29T11:27:27;6.05;;;4.13;;
72109;SDS011;59983;52.010;5.420;2023-07-29T11:29:57;4.25;;;3.85;;
72109;SDS011;59983;52.010;5.420;2023-07-29T11:32:25;5.97;;;4.55;;
72109;SDS011;59983;52.010;5.420;2023-07-29T11:34:52;5.33;;;4.93;;
72109;SDS011;59983;52.010;5.420;2023-07-29T11:37:19;4.38;;;3.97;;
72109;SDS011;59983;52.010;5.420;2023-07-29T11:39:47;5.40;;;5.07;;
72109;SDS011;59983;52.010;5.420;2023-07-29T11:42:14;5.57;;;5.28;;
72109;SDS011;59983;52.010;5.420;2023-07-29T11:44:41;5.53;;;5.13;;
72109;SDS011;59983;52.010;5.420;2023-07-29T11:47:08;6.37;;;5.77;;
72109;SDS011;59983;52.010;5.420;2023-07-29T11:49:37;6.60;;;5.90;;
72109;SDS011;59983;52.010;5.420;2023-07-29T11:52:06;7.25;;;6.75;;
72109;SDS011;59983;52.010;5.420;2023-07-29T11:54:37;6.03;;;5.55;;
72109;SDS011;59983;52.010;5.420;2023-07-29T11:57:07;5.60;;;5.20;;
72109;SDS011;59983;52.010;5.420;2023-07-29T11:59:35;5.40;;;5.00;;
72109;SDS011;59983;52.010;5.420;2023-07-29T12:02:05;4.90;;;4.60;;
72109;SDS011;59983;52.010;5.420;2023-07-29T12:04:37;5.07;;;4.78;;
72109;SDS011;59983;52.010;5.420;2023-07-29T12:07:06;5.75;;;5.28;;
72109;SDS011;59983;52.010;5.420;2023-07-29T12:09:33;9.18;;;5.85;;
72109;SDS011;59983;52.010;5.420;2023-07-29T12:12:01;7.67;;;6.03;;
72109;SDS011;59983;52.010;5.420;2023-07-29T12:14:29;5.65;;;5.25;;
72109;SDS011;59983;52.010;5.420;2023-07-29T12:16:56;6.47;;;5.90;;
72109;SDS011;59983;52.010;5.420;2023-07-29T12:19:33;6.50;;;5.80;;
72109;SDS011;59983;52.010;5.420;2023-07-29T12:22:04;5.57;;;5.18;;
72109;SDS011;59983;52.010;5.420;2023-07-29T12:24:32;6.27;;;5.77;;
72109;SDS011;59983;52.010;5.420;2023-07-29T12:27:01;5.70;;;5.25;;
72109;SDS011;59983;52.010;5.420;2023-07-29T12:29:27;5.53;;;5.13;;
72109;SDS011;59983;52.010;5.420;2023-07-29T12:31:58;3.90;;;3.60;;
72109;SDS011;59983;52.010;5.420;2023-07-29T12:34:30;4.47;;;4.15;;
72109;SDS011;59983;52.010;5.420;2023-07-29T12:36:58;3.60;;;3.30;;
72109;SDS011;59983;52.010;5.420;2023-07-29T12:39:26;6.43;;;3.20;;
72109;SDS011;59983;52.010;5.420;2023-07-29T12:41:57;2.45;;;2.30;;
72109;SDS011;59983;52.010;5.420;2023-07-29T12:44:26;3.75;;;3.50;;
72109;SDS011;59983;52.010;5.420;2023-07-29T12:46:55;2.65;;;2.45;;
72109;SDS011;59983;52.010;5.420;2023-07-29T12:49:22;2.30;;;2.20;;
72109;SDS011;59983;52.010;5.420;2023-07-29T12:51:49;3.33;;;3.10;;
72109;SDS011;59983;52.010;5.420;2023-07-29T12:54:15;2.90;;;2.70;;
72109;SDS011;59983;52.010;5.420;2023-07-29T12:56:42;2.85;;;2.70;;
72109;SDS011;59983;52.010;5.420;2023-07-29T12:59:08;4.50;;;2.58;;
72109;SDS011;59983;52.010;5.420;2023-07-29T13:01:35;3.27;;;3.07;;
72109;SDS011;59983;52.010;5.420;2023-07-29T13:04:01;3.60;;;3.40;;
72109;SDS011;59983;52.010;5.420;2023-07-29T13:06:28;3.70;;;3.40;;
72109;SDS011;59983;52.010;5.420;2023-07-29T13:08:58;4.03;;;3.80;;
72109;SDS011;59983;52.010;5.420;2023-07-29T13:11:24;4.80;;;4.38;;
72109;SDS011;59983;52.010;5.420;2023-07-29T13:13:52;6.60;;;3.83;;
72109;SDS011;59983;52.010;5.420;2023-07-29T13:16:19;5.43;;;4.65;;
72109;SDS011;59983;52.010;5.420;2023-07-29T13:18:45;5.45;;;5.03;;
72109;SDS011;59983;52.010;5.420;2023-07-29T13:21:12;5.78;;;5.32;;
72109;SDS011;59983;52.010;5.420;2023-07-29T13:23:38;5.03;;;4.57;;
72109;SDS011;59983;52.010;5.420;2023-07-29T13:26:05;5.97;;;5.53;;
72109;SDS011;59983;52.010;5.420;2023-07-29T13:28:32;6.90;;;5.43;;
72109;SDS011;59983;52.010;5.420;2023-07-29T13:30:59;5.53;;;5.10;;
72109;SDS011;59983;52.010;5.420;2023-07-29T13:33:25;6.47;;;6.05;;
72109;SDS011;59983;52.010;5.420;2023-07-29T13:35:52;6.20;;;5.80;;
72109;SDS011;59983;52.010;5.420;2023-07-29T13:38:19;7.10;;;6.57;;
72109;SDS011;59983;52.010;5.420;2023-07-29T13:40:46;5.53;;;5.13;;
72109;SDS011;59983;52.010;5.420;2023-07-29T13:43:13;5.18;;;4.75;;
72109;SDS011;59983;52.010;5.420;2023-07-29T13:45:40;5.18;;;4.78;;
72109;SDS011;59983;52.010;5.420;2023-07-29T13:48:07;4.43;;;4.10;;
72109;SDS011;59983;52.010;5.420;2023-07-29T13:50:34;5.60;;;4.80;;
72109;SDS011;59983;52.010;5.420;2023-07-29T13:53:00;5.50;;;5.10;;
72109;SDS011;59983;52.010;5.420;2023-07-29T13:55:27;4.57;;;4.28;;
72109;SDS011;59983;52.010;5.420;2023-07-29T13:57:53;4.85;;;4.50;;
72109;SDS011;59983;52.010;5.420;2023-07-29T14:00:20;3.80;;;3.60;;
72109;SDS011;59983;52.010;5.420;2023-07-29T14:02:47;4.37;;;4.07;;
72109;SDS011;59983;52.010;5.420;2023-07-29T14:05:14;3.60;;;3.40;;
72109;SDS011;59983;52.010;5.420;2023-07-29T14:07:41;5.03;;;4.43;;
72109;SDS011;59983;52.010;5.420;2023-07-29T14:10:07;4.20;;;3.90;;
72109;SDS011;59983;52.010;5.420;2023-07-29T14:12:34;4.10;;;3.70;;
72109;SDS011;59983;52.010;5.420;2023-07-29T14:15:01;5.00;;;4.70;;
72109;SDS011;59983;52.010;5.420;2023-07-29T14:17:27;3.35;;;2.97;;
72109;SDS011;59983;52.010;5.420;2023-07-29T14:19:54;3.92;;;3.03;;
72109;SDS011;59983;52.010;5.420;2023-07-29T14:22:21;2.97;;;2.78;;
72109;SDS011;59983;52.010;5.420;2023-07-29T14:24:47;3.28;;;3.08;;
72109;SDS011;59983;52.010;5.420;2023-07-29T14:27:14;4.97;;;3.40;;
72109;SDS011;59983;52.010;5.420;2023-07-29T14:29:42;5.80;;;3.80;;
72109;SDS011;59983;52.010;5.420;2023-07-29T14:32:09;3.20;;;3.00;;
72109;SDS011;59983;52.010;5.420;2023-07-29T14:34:36;3.35;;;3.05;;
72109;SDS011;59983;52.010;5.420;2023-07-29T14:37:02;3.35;;;3.13;;
72109;SDS011;59983;52.010;5.420;2023-07-29T14:39:29;3.10;;;2.90;;
72109;SDS011;59983;52.010;5.420;2023-07-29T14:41:55;3.33;;;3.13;;
72109;SDS011;59983;52.010;5.420;2023-07-29T14:44:22;3.50;;;3.20;;
72109;SDS011;59983;52.010;5.420;2023-07-29T14:46:48;3.50;;;3.25;;
72109;SDS011;59983;52.010;5.420;2023-07-29T14:49:15;2.92;;;2.72;;
72109;SDS011;59983;52.010;5.420;2023-07-29T14:51:42;3.07;;;2.87;;
72109;SDS011;59983;52.010;5.420;2023-07-29T14:54:08;3.85;;;2.65;;
72109;SDS011;59983;52.010;5.420;2023-07-29T14:56:35;2.00;;;1.90;;
72109;SDS011;59983;52.010;5.420;2023-07-29T14:59:01;2.47;;;1.60;;
72109;SDS011;59983;52.010;5.420;2023-07-29T15:01:28;2.15;;;2.03;;
72109;SDS011;59983;52.010;5.420;2023-07-29T15:03:55;2.50;;;2.30;;
72109;SDS011;59983;52.010;5.420;2023-07-29T15:06:21;2.47;;;2.28;;
72109;SDS011;59983;52.010;5.420;2023-07-29T15:08:48;2.17;;;2.05;;
72109;SDS011;59983;52.010;5.420;2023-07-29T15:11:15;3.08;;;1.90;;
72109;SDS011;59983;52.010;5.420;2023-07-29T15:13:42;2.00;;;1.90;;
72109;SDS011;59983;52.010;5.420;2023-07-29T15:16:08;2.20;;;2.10;;